createdAt,value
2023-04-11T04:19:55.462Z,23.80
2023-04-11T04:23:00.250Z,23.95
2023-04-11T04:26:05.610Z,21.80
2023-04-11T04:29:10.258Z,21.70
2023-04-11T04:32:23.163Z,19.45
2023-04-11T04:35:27.166Z,20.98
2023-04-11T04:38:30.940Z,20.80
2023-04-11T04:41:36.306Z,19.52
2023-04-11T04:44:39.095Z,20.83
2023-04-11T04:47:42.700Z,19.80
2023-04-11T04:50:45.996Z,20.05
2023-04-11T04:53:49.089Z,20.23
2023-04-11T04:56:51.577Z,17.67
2023-04-11T04:59:58.553Z,19.37
2023-04-11T05:03:05.662Z,17.67
2023-04-11T05:06:09.716Z,18.65
2023-04-11T05:09:14.997Z,17.10
2023-04-11T05:12:26.251Z,16.70
2023-04-11T05:15:29.444Z,17.98
2023-04-11T05:18:32.977Z,18.67
2023-04-11T05:21:40.064Z,17.60
2023-04-11T05:24:45.168Z,17.23
2023-04-11T05:27:47.945Z,17.37
2023-04-11T05:30:51.325Z,16.35
2023-04-11T05:33:56.548Z,15.90
2023-04-11T05:37:01.381Z,14.73
2023-04-11T05:40:04.364Z,14.93
2023-04-11T05:43:08.387Z,14.40
2023-04-11T05:46:12.824Z,15.15
2023-04-11T05:49:16.152Z,14.90
2023-04-11T05:52:18.802Z,14.85
2023-04-11T05:55:21.734Z,14.25
2023-04-11T05:58:25.177Z,14.48
2023-04-11T06:01:28.038Z,13.62
2023-04-11T06:04:31.339Z,13.23
2023-04-11T06:07:35.960Z,14.38
2023-04-11T06:10:38.934Z,14.90
2023-04-11T06:13:41.521Z,13.75
2023-04-11T06:16:44.357Z,13.93
2023-04-11T06:19:47.439Z,14.18
2023-04-11T06:22:52.319Z,13.98
2023-04-11T06:25:54.990Z,13.98
2023-04-11T06:28:57.822Z,13.75
2023-04-11T06:32:00.795Z,14.15
2023-04-11T06:35:03.968Z,14.13
2023-04-11T06:38:06.466Z,14.40
2023-04-11T06:41:09.379Z,14.93
2023-04-11T06:44:12.382Z,14.60
2023-04-11T06:47:15.314Z,14.25
2023-04-11T06:50:18.501Z,14.00
2023-04-11T06:53:21.613Z,14.05
2023-04-11T06:56:24.276Z,14.52
2023-04-11T06:59:27.485Z,14.57
2023-04-11T07:02:30.288Z,13.82
2023-04-11T07:05:33.953Z,14.52
2023-04-11T07:08:36.857Z,14.35
2023-04-11T07:11:39.906Z,14.43
2023-04-11T07:14:42.478Z,14.75
2023-04-11T07:17:47.496Z,13.98
2023-04-11T07:20:52.471Z,13.73
2023-04-11T07:23:55.707Z,14.20
2023-04-11T07:26:58.945Z,14.48
2023-04-11T07:30:03.170Z,14.80
2023-04-11T07:33:06.322Z,15.05
2023-04-11T07:36:09.747Z,15.35
2023-04-11T07:39:14.896Z,17.25
2023-04-11T07:42:17.964Z,18.10
2023-04-11T07:45:21.401Z,18.92
2023-04-11T07:48:26.428Z,19.52
2023-04-11T07:51:29.080Z,19.12
2023-04-11T07:54:32.842Z,16.33
2023-04-11T07:57:35.420Z,15.00
2023-04-11T08:00:38.767Z,13.15
2023-04-11T08:03:41.764Z,13.55
2023-04-11T08:06:44.555Z,13.10
2023-04-11T08:09:47.804Z,10.63
2023-04-11T08:12:50.894Z,9.75
2023-04-11T08:15:53.687Z,9.52
2023-04-11T08:18:57.379Z,8.25
2023-04-11T08:22:00.758Z,10.20
2023-04-11T08:25:03.816Z,11.80
2023-04-11T08:28:06.978Z,13.38
2023-04-11T08:31:10.654Z,14.27
2023-04-11T08:34:14.088Z,14.20
2023-04-11T08:37:16.707Z,15.30
2023-04-11T08:40:19.735Z,14.45
2023-04-11T08:43:22.554Z,14.98
2023-04-11T08:46:25.670Z,15.30
2023-04-11T08:49:28.238Z,13.75
2023-04-11T08:52:31.798Z,13.18
2023-04-11T08:55:34.363Z,12.25
2023-04-11T08:58:37.175Z,12.07
2023-04-11T09:01:40.893Z,11.60
2023-04-11T09:04:44.735Z,12.05
2023-04-11T09:07:50.347Z,11.68
2023-04-11T09:11:01.377Z,11.57
2023-04-11T09:17:14.411Z,13.95
2023-04-11T09:20:18.025Z,14.10
2023-04-11T09:23:24.344Z,14.02
2023-04-11T09:26:29.972Z,15.38
2023-04-11T09:29:41.930Z,16.15
2023-04-11T09:32:44.584Z,15.60
2023-04-11T09:35:49.768Z,15.32
2023-04-11T09:38:52.498Z,15.18
2023-04-11T09:41:55.823Z,14.93
2023-04-11T09:44:58.763Z,14.63
2023-04-11T09:48:01.847Z,14.10
2023-04-11T09:51:07.974Z,14.02
2023-04-11T09:54:12.083Z,12.98
2023-04-11T09:57:14.972Z,12.70
2023-04-11T10:00:21.466Z,13.62
2023-04-11T10:03:26.401Z,13.07
2023-04-11T10:06:38.662Z,13.15
2023-04-11T10:09:43.520Z,14.07
2023-04-11T10:12:46.567Z,13.50
2023-04-11T10:16:08.513Z,14.07
2023-04-11T10:19:24.041Z,14.00
2023-04-11T10:22:44.106Z,13.20
2023-04-11T10:25:53.767Z,15.88
2023-04-11T10:28:56.635Z,15.77
2023-04-11T10:32:08.076Z,14.40
2023-04-11T10:35:16.971Z,14.05
2023-04-11T10:38:41.770Z,13.27
2023-04-11T10:41:45.656Z,14.07
2023-04-11T10:45:24.512Z,13.38
2023-04-11T10:48:27.448Z,14.18
2023-04-11T10:51:34.093Z,13.52
2023-04-11T10:54:36.963Z,13.18
2023-04-11T10:58:07.073Z,15.55
2023-04-11T11:04:40.200Z,14.50
2023-04-11T11:07:46.934Z,14.98
2023-04-11T11:10:50.409Z,14.50
2023-04-11T11:13:56.053Z,15.52
2023-04-11T11:16:59.696Z,13.40
2023-04-11T11:20:10.212Z,12.18
2023-04-11T11:23:12.885Z,11.85
2023-04-11T11:26:15.824Z,12.75
2023-04-11T11:29:38.732Z,13.48
2023-04-11T11:32:41.643Z,14.68
2023-04-11T11:35:51.942Z,14.35
2023-04-11T11:38:55.467Z,14.68
2023-04-11T11:41:58.540Z,13.62
2023-04-11T11:45:18.323Z,14.38
2023-04-11T11:48:24.943Z,14.02
2023-04-11T11:51:41.462Z,13.27
2023-04-11T11:54:47.439Z,13.88
2023-04-11T12:01:35.239Z,12.27
2023-04-11T12:04:38.568Z,13.27
2023-04-11T12:07:41.467Z,8.40
2023-04-11T12:10:46.624Z,12.02
2023-04-11T12:13:52.758Z,11.85
2023-04-11T12:16:55.796Z,11.07
2023-04-11T12:19:58.355Z,10.60
2023-04-11T12:23:21.448Z,10.18
2023-04-11T12:26:25.340Z,8.43
2023-04-11T12:29:28.283Z,8.80
2023-04-11T12:32:33.121Z,9.55
2023-04-11T12:35:36.155Z,9.18
2023-04-11T12:38:38.789Z,9.68
2023-04-11T12:41:41.586Z,9.60
2023-04-11T12:44:44.671Z,10.98
2023-04-11T12:47:47.971Z,10.63
2023-04-11T12:50:50.698Z,10.10
2023-04-11T12:53:53.629Z,10.48
2023-04-11T12:56:58.423Z,11.15
2023-04-11T13:00:16.850Z,10.27
2023-04-11T13:03:19.838Z,10.50
2023-04-11T13:06:23.281Z,10.38
2023-04-11T13:09:26.214Z,9.63
2023-04-11T13:12:30.557Z,9.50
2023-04-11T13:15:33.449Z,9.80
2023-04-11T13:18:36.626Z,10.40
2023-04-11T13:21:39.575Z,9.55
2023-04-11T13:24:42.732Z,9.02
2023-04-11T13:27:45.779Z,9.95
2023-04-11T13:30:48.923Z,8.75
2023-04-11T13:33:52.624Z,9.77
2023-04-11T13:36:56.086Z,9.43
2023-04-11T13:39:59.288Z,9.68
2023-04-11T13:43:02.235Z,9.52
2023-04-11T13:46:05.401Z,8.85
2023-04-11T13:49:08.108Z,8.98
2023-04-11T13:55:56.624Z,8.73
2023-04-11T13:58:59.982Z,9.02
2023-04-11T14:02:02.757Z,8.07
2023-04-11T14:05:06.278Z,5.97
2023-04-11T14:08:08.873Z,6.00
2023-04-11T14:11:11.778Z,6.45
2023-04-11T14:14:14.405Z,6.00
2023-04-11T14:17:17.365Z,5.50
2023-04-11T14:20:20.515Z,5.43
2023-04-11T14:23:45.500Z,5.80
2023-04-11T14:26:50.042Z,5.70
2023-04-11T14:29:53.100Z,6.07
2023-04-11T14:32:56.437Z,6.40
2023-04-11T14:36:00.054Z,5.75
2023-04-11T14:39:05.122Z,5.87
2023-04-11T14:42:09.810Z,6.60
2023-04-11T14:45:12.561Z,6.85
2023-04-11T14:48:18.162Z,7.05
2023-04-11T14:51:21.319Z,7.47
2023-04-11T14:54:24.561Z,7.55
2023-04-11T14:57:46.503Z,5.25
2023-04-11T15:00:49.402Z,3.22
2023-04-11T15:04:01.732Z,2.80
2023-04-11T15:07:04.944Z,2.97
2023-04-11T15:10:08.272Z,3.50
2023-04-11T15:13:13.606Z,4.07
2023-04-11T15:16:17.986Z,4.22
2023-04-11T15:19:21.704Z,4.35
2023-04-11T15:22:24.449Z,4.53
2023-04-11T15:25:27.286Z,5.03
2023-04-11T15:28:33.061Z,6.30
2023-04-11T15:31:37.859Z,6.12
